sensor_id;sensor_type;location;lat;lon;timestamp;pressure;altitude;pressure_sealevel;temperature;humidity
19114;BME280;9689;51.052;13.772;2023-03-19T00:04:09;100195.34;;;8.61;51.71
19114;BME280;9689;51.052;13.772;2023-03-19T00:09:11;100193.53;;;8.66;51.50
19114;BME280;9689;51.052;13.772;2023-03-19T00:14:12;100203.09;;;8.64;51.44
19114;BME280;9689;51.052;13.772;2023-03-19T00:19:12;100191.75;;;8.68;51.25
19114;BME280;9689;51.052;13.772;2023-03-19T00:24:15;100195.31;;;8.63;51.66
19114;BME280;9689;51.052;13.772;2023-03-19T00:29:16;100197.09;;;8.61;51.31
19114;BME280;9689;51.052;13.772;2023-03-19T00:34:18;100198.84;;;8.60;51.28
19114;BME280;9689;51.052;13.772;2023-03-19T00:39:22;100193.84;;;8.45;51.80
19114;BME280;9689;51.052;13.772;2023-03-19T00:44:23;100198.19;;;8.41;51.68
19114;BME280;9689;51.052;13.772;2023-03-19T00:49:24;100193.03;;;8.40;52.07
19114;BME280;9689;51.052;13.772;2023-03-19T00:54:26;100197.34;;;8.39;52.20
19114;BME280;9689;51.052;13.772;2023-03-19T00:59:29;100192.22;;;8.36;52.06
19114;BME280;9689;51.052;13.772;2023-03-19T01:04:29;100195.66;;;8.34;52.28
19114;BME280;9689;51.052;13.772;2023-03-19T01:09:32;100206.19;;;8.21;52.91
19114;BME280;9689;51.052;13.772;2023-03-19T01:14:34;100207.06;;;8.22;52.21
19114;BME280;9689;51.052;13.772;2023-03-19T01:19:35;100197.53;;;8.22;52.71
19114;BME280;9689;51.052;13.772;2023-03-19T01:24:37;100182.91;;;8.17;52.72
19114;BME280;9689;51.052;13.772;2023-03-19T01:29:38;100178.69;;;8.07;53.20
19114;BME280;9689;51.052;13.772;2023-03-19T01:34:56;100177.91;;;7.99;53.77
19114;BME280;9689;51.052;13.772;2023-03-19T01:39:58;100178.81;;;7.96;53.23
19114;BME280;9689;51.052;13.772;2023-03-19T01:45:01;100178.78;;;7.98;53.45
19114;BME280;9689;51.052;13.772;2023-03-19T01:50:22;100169.16;;;8.07;52.88
19114;BME280;9689;51.052;13.772;2023-03-19T01:55:40;100177.81;;;8.06;52.67
19114;BME280;9689;51.052;13.772;2023-03-19T02:00:53;100187.28;;;8.12;52.87
19114;BME280;9689;51.052;13.772;2023-03-19T02:05:55;100188.19;;;8.09;52.98
19114;BME280;9689;51.052;13.772;2023-03-19T02:10:58;100192.41;;;8.19;52.09
19114;BME280;9689;51.052;13.772;2023-03-19T02:16:02;100196.75;;;8.14;52.42
19114;BME280;9689;51.052;13.772;2023-03-19T02:21:06;100178.63;;;8.13;52.58
19114;BME280;9689;51.052;13.772;2023-03-19T02:26:10;100175.13;;;8.17;52.26
19114;BME280;9689;51.052;13.772;2023-03-19T02:31:13;100179.34;;;8.24;52.01
19114;BME280;9689;51.052;13.772;2023-03-19T02:36:16;100177.50;;;8.32;51.85
19114;BME280;9689;51.052;13.772;2023-03-19T02:41:20;100184.50;;;8.27;51.63
19114;BME280;9689;51.052;13.772;2023-03-19T02:46:21;100180.22;;;8.23;51.25
19114;BME280;9689;51.052;13.772;2023-03-19T02:51:22;100182.78;;;8.26;51.84
19114;BME280;9689;51.052;13.772;2023-03-19T02:56:24;100171.47;;;8.32;51.19
19114;BME280;9689;51.052;13.772;2023-03-19T03:01:25;100171.56;;;8.26;51.14
19114;BME280;9689;51.052;13.772;2023-03-19T03:06:25;100168.16;;;8.19;51.32
19114;BME280;9689;51.052;13.772;2023-03-19T03:11:27;100180.16;;;8.29;50.81
19114;BME280;9689;51.052;13.772;2023-03-19T03:16:28;100192.44;;;8.13;51.29
19114;BME280;9689;51.052;13.772;2023-03-19T03:21:29;100200.19;;;8.18;51.17
19114;BME280;9689;51.052;13.772;2023-03-19T03:26:35;100217.56;;;8.11;51.73
19114;BME280;9689;51.052;13.772;2023-03-19T03:31:37;100219.56;;;7.88;51.70
19114;BME280;9689;51.052;13.772;2023-03-19T03:36:38;100215.31;;;7.82;52.55
19114;BME280;9689;51.052;13.772;2023-03-19T03:41:40;100197.13;;;7.84;51.99
19114;BME280;9689;51.052;13.772;2023-03-19T03:46:41;100209.16;;;7.89;51.81
19114;BME280;9689;51.052;13.772;2023-03-19T03:51:43;100229.13;;;7.83;52.13
19114;BME280;9689;51.052;13.772;2023-03-19T03:56:45;100213.72;;;7.66;52.72
19114;BME280;9689;51.052;13.772;2023-03-19T04:01:46;100214.59;;;7.63;52.63
19114;BME280;9689;51.052;13.772;2023-03-19T04:06:47;100223.31;;;7.59;52.64
19114;BME280;9689;51.052;13.772;2023-03-19T04:11:59;100219.84;;;7.59;52.02
19114;BME280;9689;51.052;13.772;2023-03-19T04:17:00;100213.81;;;7.57;53.38
19114;BME280;9689;51.052;13.772;2023-03-19T04:22:01;100208.75;;;7.42;52.68
19114;BME280;9689;51.052;13.772;2023-03-19T04:27:05;100204.31;;;7.56;53.09
19114;BME280;9689;51.052;13.772;2023-03-19T04:32:08;100211.22;;;7.58;53.05
19114;BME280;9689;51.052;13.772;2023-03-19T04:37:09;100207.66;;;7.69;52.67
19114;BME280;9689;51.052;13.772;2023-03-19T04:42:19;100213.75;;;7.63;52.46
19114;BME280;9689;51.052;13.772;2023-03-19T04:47:26;100205.94;;;7.68;52.39
19114;BME280;9689;51.052;13.772;2023-03-19T04:52:30;100205.03;;;7.70;52.55
19114;BME280;9689;51.052;13.772;2023-03-19T04:57:35;100207.66;;;7.67;52.61
19114;BME280;9689;51.052;13.772;2023-03-19T05:02:36;100211.16;;;7.61;51.71
19114;BME280;9689;51.052;13.772;2023-03-19T05:07:37;100225.13;;;7.48;52.18
19114;BME280;9689;51.052;13.772;2023-03-19T05:12:39;100234.66;;;7.48;52.18
19114;BME280;9689;51.052;13.772;2023-03-19T05:17:41;100219.22;;;7.29;53.38
19114;BME280;9689;51.052;13.772;2023-03-19T05:22:47;100226.13;;;7.32;52.34
19114;BME280;9689;51.052;13.772;2023-03-19T05:27:50;100221.03;;;7.23;53.48
19114;BME280;9689;51.052;13.772;2023-03-19T05:32:55;100227.09;;;7.17;54.02
19114;BME280;9689;51.052;13.772;2023-03-19T05:38:05;100214.09;;;7.23;52.98
19114;BME280;9689;51.052;13.772;2023-03-19T05:43:09;100225.25;;;7.33;53.65
19114;BME280;9689;51.052;13.772;2023-03-19T05:48:11;100225.22;;;7.36;52.65
19114;BME280;9689;51.052;13.772;2023-03-19T05:53:16;100225.19;;;7.37;52.59
19114;BME280;9689;51.052;13.772;2023-03-19T05:58:29;100234.66;;;7.43;52.72
19114;BME280;9689;51.052;13.772;2023-03-19T06:03:31;100231.91;;;7.61;51.70
19114;BME280;9689;51.052;13.772;2023-03-19T06:08:37;100240.44;;;7.76;51.26
19114;BME280;9689;51.052;13.772;2023-03-19T06:14:14;100248.94;;;7.91;51.16
19114;BME280;9689;51.052;13.772;2023-03-19T06:19:25;100242.91;;;7.86;50.88
19114;BME280;9689;51.052;13.772;2023-03-19T06:24:26;100242.00;;;7.93;50.46
19114;BME280;9689;51.052;13.772;2023-03-19T06:29:30;100230.69;;;7.98;50.37
19114;BME280;9689;51.052;13.772;2023-03-19T06:34:42;100240.13;;;8.05;49.79
19114;BME280;9689;51.052;13.772;2023-03-19T06:39:44;100234.84;;;8.14;49.85
19114;BME280;9689;51.052;13.772;2023-03-19T06:44:46;100237.31;;;8.25;49.15
19114;BME280;9689;51.052;13.772;2023-03-19T06:49:46;100237.09;;;8.46;49.15
19114;BME280;9689;51.052;13.772;2023-03-19T06:54:47;100246.31;;;8.68;48.40
19114;BME280;9689;51.052;13.772;2023-03-19T06:59:49;100245.25;;;8.86;48.14
19114;BME280;9689;51.052;13.772;2023-03-19T07:04:51;100237.34;;;8.91;47.56
19114;BME280;9689;51.052;13.772;2023-03-19T07:09:52;100254.34;;;9.15;46.91
19114;BME280;9689;51.052;13.772;2023-03-19T07:14:54;100266.59;;;9.06;46.90
19114;BME280;9689;51.052;13.772;2023-03-19T07:19:55;100268.78;;;9.34;45.61
19114;BME280;9689;51.052;13.772;2023-03-19T07:24:56;100282.28;;;9.57;46.13
19114;BME280;9689;51.052;13.772;2023-03-19T07:29:58;100282.88;;;9.75;45.57
19114;BME280;9689;51.052;13.772;2023-03-19T07:34:59;100273.66;;;10.05;44.51
19114;BME280;9689;51.052;13.772;2023-03-19T07:40:00;100276.91;;;10.16;44.24
19114;BME280;9689;51.052;13.772;2023-03-19T07:45:02;100263.66;;;10.30;44.10
19114;BME280;9689;51.052;13.772;2023-03-19T07:50:04;100273.47;;;10.14;44.16
19114;BME280;9689;51.052;13.772;2023-03-19T07:55:07;100264.88;;;10.55;43.72
19114;BME280;9689;51.052;13.772;2023-03-19T08:00:10;100260.75;;;10.87;42.79
19114;BME280;9689;51.052;13.772;2023-03-19T08:05:19;100259.84;;;11.26;45.34
19114;BME280;9689;51.052;13.772;2023-03-19T08:10:20;100262.94;;;11.42;43.34
19114;BME280;9689;51.052;13.772;2023-03-19T08:15:21;100262.81;;;11.48;40.79
19114;BME280;9689;51.052;13.772;2023-03-19T08:20:23;100261.16;;;11.44;41.26
19114;BME280;9689;51.052;13.772;2023-03-19T08:25:24;100264.81;;;11.71;40.85
19114;BME280;9689;51.052;13.772;2023-03-19T08:30:25;100266.53;;;11.74;39.59
19114;BME280;9689;51.052;13.772;2023-03-19T08:35:27;100259.59;;;11.73;41.28
19114;BME280;9689;51.052;13.772;2023-03-19T08:40:28;100265.91;;;11.98;41.26
19114;BME280;9689;51.052;13.772;2023-03-19T08:45:29;100265.69;;;11.72;41.34
19114;BME280;9689;51.052;13.772;2023-03-19T08:50:31;100267.19;;;12.14;40.15
19114;BME280;9689;51.052;13.772;2023-03-19T08:55:32;100262.28;;;12.04;39.78
19114;BME280;9689;51.052;13.772;2023-03-19T09:00:34;100269.00;;;12.45;39.82
19114;BME280;9689;51.052;13.772;2023-03-19T09:05:36;100264.72;;;12.41;40.14
19114;BME280;9689;51.052;13.772;2023-03-19T09:10:38;100265.16;;;12.57;39.93
19114;BME280;9689;51.052;13.772;2023-03-19T09:15:39;100279.00;;;12.90;38.47
19114;BME280;9689;51.052;13.772;2023-03-19T09:20:41;100268.22;;;13.00;38.53
19114;BME280;9689;51.052;13.772;2023-03-19T09:25:42;100275.22;;;13.29;38.26
19114;BME280;9689;51.052;13.772;2023-03-19T09:30:44;100274.47;;;13.52;38.16
19114;BME280;9689;51.052;13.772;2023-03-19T09:35:50;100272.75;;;13.51;38.55
19114;BME280;9689;51.052;13.772;2023-03-19T09:41:02;100269.56;;;13.42;39.24
19114;BME280;9689;51.052;13.772;2023-03-19T09:46:12;100268.97;;;13.60;38.42
19114;BME280;9689;51.052;13.772;2023-03-19T09:51:17;100267.22;;;13.61;38.74
19114;BME280;9689;51.052;13.772;2023-03-19T09:56:19;100258.34;;;13.65;38.79
19114;BME280;9689;51.052;13.772;2023-03-19T10:01:24;100247.22;;;13.58;38.79
19114;BME280;9689;51.052;13.772;2023-03-19T10:06:28;100245.56;;;13.82;37.67
19114;BME280;9689;51.052;13.772;2023-03-19T10:11:39;100237.84;;;14.27;38.15
19114;BME280;9689;51.052;13.772;2023-03-19T10:16:45;100231.75;;;14.50;36.55
19114;BME280;9689;51.052;13.772;2023-03-19T10:21:53;100239.34;;;14.81;36.84
19114;BME280;9689;51.052;13.772;2023-03-19T10:26:58;100233.28;;;15.45;35.56
19114;BME280;9689;51.052;13.772;2023-03-19T10:32:02;100234.56;;;15.57;35.83
19114;BME280;9689;51.052;13.772;2023-03-19T10:37:15;100240.75;;;15.55;35.47
19114;BME280;9689;51.052;13.772;2023-03-19T10:42:37;100237.03;;;15.61;35.66
19114;BME280;9689;51.052;13.772;2023-03-19T10:47:40;100222.97;;;15.62;35.76
19114;BME280;9689;51.052;13.772;2023-03-19T10:52:44;100229.53;;;15.72;35.30
19114;BME280;9689;51.052;13.772;2023-03-19T10:57:55;100221.78;;;15.69;35.35
19114;BME280;9689;51.052;13.772;2023-03-19T11:02:56;100215.50;;;15.51;35.69
19114;BME280;9689;51.052;13.772;2023-03-19T11:08:00;100218.28;;;15.48;36.23
19114;BME280;9689;51.052;13.772;2023-03-19T11:13:04;100228.63;;;15.31;35.87
19114;BME280;9689;51.052;13.772;2023-03-19T11:18:07;100219.50;;;15.40;36.41
19114;BME280;9689;51.052;13.772;2023-03-19T11:23:16;100214.28;;;15.60;36.79
19114;BME280;9689;51.052;13.772;2023-03-19T11:28:18;100205.53;;;15.60;36.36
19114;BME280;9689;51.052;13.772;2023-03-19T11:33:38;100203.03;;;15.99;35.72
19114;BME280;9689;51.052;13.772;2023-03-19T11:38:56;100198.16;;;16.29;35.35
19114;BME280;9689;51.052;13.772;2023-03-19T11:44:04;100197.63;;;16.79;34.96
19114;BME280;9689;51.052;13.772;2023-03-19T11:49:29;100201.38;;;17.28;34.31
19114;BME280;9689;51.052;13.772;2023-03-19T11:54:43;100194.28;;;17.11;33.95
19114;BME280;9689;51.052;13.772;2023-03-19T11:59:56;100190.72;;;17.66;33.04
19114;BME280;9689;51.052;13.772;2023-03-19T12:05:11;100190.53;;;17.69;38.62
19114;BME280;9689;51.052;13.772;2023-03-19T12:10:27;100186.06;;;17.71;35.09
19114;BME280;9689;51.052;13.772;2023-03-19T12:15:34;100194.69;;;17.74;34.92
19114;BME280;9689;51.052;13.772;2023-03-19T12:20:48;100180.59;;;17.75;35.53
19114;BME280;9689;51.052;13.772;2023-03-19T12:26:01;100184.28;;;17.89;36.10
19114;BME280;9689;51.052;13.772;2023-03-19T12:36:36;100191.09;;;17.41;37.19
19114;BME280;9689;51.052;13.772;2023-03-19T12:41:42;100193.47;;;17.28;36.62
19114;BME280;9689;51.052;13.772;2023-03-19T12:46:48;100183.19;;;17.23;37.92
19114;BME280;9689;51.052;13.772;2023-03-19T12:51:55;100191.63;;;17.30;38.64
19114;BME280;9689;51.052;13.772;2023-03-19T12:57:00;100185.09;;;17.37;36.51
19114;BME280;9689;51.052;13.772;2023-03-19T13:02:11;100188.38;;;17.60;38.28
19114;BME280;9689;51.052;13.772;2023-03-19T13:07:20;100194.59;;;17.59;37.73
19114;BME280;9689;51.052;13.772;2023-03-19T13:12:25;100187.34;;;17.81;34.55
19114;BME280;9689;51.052;13.772;2023-03-19T13:17:34;100186.31;;;17.84;35.85
19114;BME280;9689;51.052;13.772;2023-03-19T13:22:37;100189.97;;;17.81;37.90
19114;BME280;9689;51.052;13.772;2023-03-19T13:27:40;100193.13;;;17.70;34.74
19114;BME280;9689;51.052;13.772;2023-03-19T13:32:44;100188.75;;;17.52;36.25
19114;BME280;9689;51.052;13.772;2023-03-19T13:37:55;100185.84;;;17.75;35.20
19114;BME280;9689;51.052;13.772;2023-03-19T13:42:58;100183.41;;;17.88;34.48
19114;BME280;9689;51.052;13.772;2023-03-19T13:48:22;100178.94;;;17.90;33.88
19114;BME280;9689;51.052;13.772;2023-03-19T13:53:37;100176.31;;;17.73;33.89
19114;BME280;9689;51.052;13.772;2023-03-19T13:58:49;100184.41;;;17.68;35.14
19114;BME280;9689;51.052;13.772;2023-03-19T14:03:52;100180.31;;;17.45;34.76
19114;BME280;9689;51.052;13.772;2023-03-19T14:08:54;100179.06;;;17.35;35.44
19114;BME280;9689;51.052;13.772;2023-03-19T14:14:00;100179.41;;;17.46;34.91
19114;BME280;9689;51.052;13.772;2023-03-19T14:19:08;100179.25;;;17.49;36.19
19114;BME280;9689;51.052;13.772;2023-03-19T14:24:28;100184.69;;;17.46;35.61
19114;BME280;9689;51.052;13.772;2023-03-19T14:29:55;100174.25;;;17.26;36.38
19114;BME280;9689;51.052;13.772;2023-03-19T14:35:00;100172.38;;;17.11;36.86
19114;BME280;9689;51.052;13.772;2023-03-19T14:40:10;100177.72;;;17.09;36.12
19114;BME280;9689;51.052;13.772;2023-03-19T14:56:19;100180.06;;;16.79;37.59
19114;BME280;9689;51.052;13.772;2023-03-19T15:01:23;100177.28;;;16.82;37.44
19114;BME280;9689;51.052;13.772;2023-03-19T15:06:30;100183.72;;;16.77;38.41
19114;BME280;9689;51.052;13.772;2023-03-19T15:12:12;100178.81;;;16.67;38.20
19114;BME280;9689;51.052;13.772;2023-03-19T15:17:23;100179.66;;;16.70;38.39
19114;BME280;9689;51.052;13.772;2023-03-19T15:22:28;100181.75;;;16.61;38.67
19114;BME280;9689;51.052;13.772;2023-03-19T15:27:29;100180.75;;;16.45;38.73
19114;BME280;9689;51.052;13.772;2023-03-19T15:32:33;100192.03;;;16.28;39.21
19114;BME280;9689;51.052;13.772;2023-03-19T15:37:57;100190.84;;;16.17;39.16
19114;BME280;9689;51.052;13.772;2023-03-19T15:43:00;100193.22;;;16.02;39.35
19114;BME280;9689;51.052;13.772;2023-03-19T15:48:06;100206.22;;;15.85;39.66
19114;BME280;9689;51.052;13.772;2023-03-19T15:53:12;100208.16;;;15.81;40.28
19114;BME280;9689;51.052;13.772;2023-03-19T15:58:19;100223.81;;;15.63;47.67
19114;BME280;9689;51.052;13.772;2023-03-19T16:03:35;100233.00;;;15.31;53.63
19114;BME280;9689;51.052;13.772;2023-03-19T16:08:45;100238.66;;;15.20;55.28
19114;BME280;9689;51.052;13.772;2023-03-19T16:13:54;100249.91;;;15.02;56.22
19114;BME280;9689;51.052;13.772;2023-03-19T16:18:58;100252.44;;;14.81;57.11
19114;BME280;9689;51.052;13.772;2023-03-19T16:24:01;100251.88;;;14.73;57.47
19114;BME280;9689;51.052;13.772;2023-03-19T16:29:06;100261.69;;;14.68;57.94
19114;BME280;9689;51.052;13.772;2023-03-19T16:34:33;100268.31;;;14.55;58.96
19114;BME280;9689;51.052;13.772;2023-03-19T16:39:52;100276.13;;;14.31;61.12
19114;BME280;9689;51.052;13.772;2023-03-19T16:44:53;100283.63;;;14.17;61.75
19114;BME280;9689;51.052;13.772;2023-03-19T16:49:56;100293.97;;;13.95;62.55
19114;BME280;9689;51.052;13.772;2023-03-19T16:54:57;100307.56;;;13.81;63.31
19114;BME280;9689;51.052;13.772;2023-03-19T16:59:58;100307.81;;;13.74;63.70
19114;BME280;9689;51.052;13.772;2023-03-19T17:05:01;100310.19;;;13.53;64.72
19114;BME280;9689;51.052;13.772;2023-03-19T17:10:02;100327.78;;;13.22;66.62
19114;BME280;9689;51.052;13.772;2023-03-19T17:15:04;100322.16;;;13.05;67.25
19114;BME280;9689;51.052;13.772;2023-03-19T17:20:12;100321.97;;;12.81;69.20
19114;BME280;9689;51.052;13.772;2023-03-19T17:25:15;100329.06;;;12.78;69.08
19114;BME280;9689;51.052;13.772;2023-03-19T17:30:17;100324.97;;;12.69;69.42
19114;BME280;9689;51.052;13.772;2023-03-19T17:35:20;100330.00;;;12.75;69.63
19114;BME280;9689;51.052;13.772;2023-03-19T17:40:23;100332.88;;;12.66;68.84
19114;BME280;9689;51.052;13.772;2023-03-19T17:45:27;100336.91;;;12.78;68.37
19114;BME280;9689;51.052;13.772;2023-03-19T17:50:30;100340.81;;;12.63;68.64
19114;BME280;9689;51.052;13.772;2023-03-19T17:55:32;100338.31;;;12.58;68.31
19114;BME280;9689;51.052;13.772;2023-03-19T18:00:32;100340.28;;;12.50;69.29
19114;BME280;9689;51.052;13.772;2023-03-19T18:05:35;100340.81;;;12.30;70.42
19114;BME280;9689;51.052;13.772;2023-03-19T18:10:36;100343.63;;;12.23;70.73
19114;BME280;9689;51.052;13.772;2023-03-19T18:15:37;100355.97;;;12.16;70.88
19114;BME280;9689;51.052;13.772;2023-03-19T18:20:41;100359.28;;;11.88;72.97
19114;BME280;9689;51.052;13.772;2023-03-19T18:25:42;100361.31;;;11.76;74.99
19114;BME280;9689;51.052;13.772;2023-03-19T18:30:43;100359.44;;;11.44;77.72
19114;BME280;9689;51.052;13.772;2023-03-19T18:35:46;100365.00;;;11.28;79.29
19114;BME280;9689;51.052;13.772;2023-03-19T18:40:47;100366.13;;;11.17;80.18
19114;BME280;9689;51.052;13.772;2023-03-19T18:45:50;100369.03;;;11.03;81.60
19114;BME280;9689;51.052;13.772;2023-03-19T18:50:54;100371.75;;;10.98;80.86
19114;BME280;9689;51.052;13.772;2023-03-19T18:55:55;100374.22;;;11.03;81.48
19114;BME280;9689;51.052;13.772;2023-03-19T19:00:57;100378.50;;;11.07;81.61
19114;BME280;9689;51.052;13.772;2023-03-19T19:06:01;100380.19;;;11.10;82.35
19114;BME280;9689;51.052;13.772;2023-03-19T19:11:02;100374.16;;;11.08;82.99
19114;BME280;9689;51.052;13.772;2023-03-19T19:16:07;100376.84;;;11.04;83.15
19114;BME280;9689;51.052;13.772;2023-03-19T19:21:11;100389.09;;;10.99;84.59
19114;BME280;9689;51.052;13.772;2023-03-19T19:26:17;100391.84;;;10.92;85.18
19114;BME280;9689;51.052;13.772;2023-03-19T19:31:22;100398.75;;;10.94;85.09
19114;BME280;9689;51.052;13.772;2023-03-19T19:36:26;100402.25;;;10.95;84.92
19114;BME280;9689;51.052;13.772;2023-03-19T19:41:27;100404.09;;;10.88;85.22
19114;BME280;9689;51.052;13.772;2023-03-19T19:46:29;100408.53;;;10.83;85.61
19114;BME280;9689;51.052;13.772;2023-03-19T19:51:32;100397.31;;;10.80;85.46
19114;BME280;9689;51.052;13.772;2023-03-19T19:56:33;100404.13;;;10.87;85.19
19114;BME280;9689;51.052;13.772;2023-03-19T20:01:38;100415.47;;;10.84;85.68
19114;BME280;9689;51.052;13.772;2023-03-19T20:06:40;100414.25;;;11.03;85.06
19114;BME280;9689;51.052;13.772;2023-03-19T20:11:41;100413.81;;;11.23;83.73
19114;BME280;9689;51.052;13.772;2023-03-19T20:16:42;100415.41;;;11.29;83.51
19114;BME280;9689;51.052;13.772;2023-03-19T20:21:44;100418.91;;;11.29;83.58
19114;BME280;9689;51.052;13.772;2023-03-19T20:26:45;100417.38;;;11.19;84.18
19114;BME280;9689;51.052;13.772;2023-03-19T20:31:45;100423.00;;;10.99;84.43
19114;BME280;9689;51.052;13.772;2023-03-19T20:36:47;100427.72;;;10.81;84.89
19114;BME280;9689;51.052;13.772;2023-03-19T20:41:48;100423.38;;;10.80;85.27
19114;BME280;9689;51.052;13.772;2023-03-19T20:46:50;100419.84;;;10.82;85.69
19114;BME280;9689;51.052;13.772;2023-03-19T20:51:52;100434.81;;;10.72;86.01
19114;BME280;9689;51.052;13.772;2023-03-19T20:56:53;100430.56;;;10.67;86.64
19114;BME280;9689;51.052;13.772;2023-03-19T21:01:54;100422.88;;;10.61;86.53
19114;BME280;9689;51.052;13.772;2023-03-19T21:06:57;100433.38;;;10.56;86.65
19114;BME280;9689;51.052;13.772;2023-03-19T21:11:57;100431.72;;;10.51;87.35
19114;BME280;9689;51.052;13.772;2023-03-19T21:16:58;100428.28;;;10.48;86.88
19114;BME280;9689;51.052;13.772;2023-03-19T21:22:01;100429.13;;;10.51;87.22
19114;BME280;9689;51.052;13.772;2023-03-19T21:27:01;100423.09;;;10.47;86.60
19114;BME280;9689;51.052;13.772;2023-03-19T21:32:04;100420.59;;;10.41;86.19
19114;BME280;9689;51.052;13.772;2023-03-19T21:37:10;100416.47;;;10.29;86.66
19114;BME280;9689;51.052;13.772;2023-03-19T21:42:14;100420.91;;;10.23;87.27
19114;BME280;9689;51.052;13.772;2023-03-19T21:47:18;100423.69;;;10.12;87.57
19114;BME280;9689;51.052;13.772;2023-03-19T21:52:21;100433.22;;;10.11;87.41
19114;BME280;9689;51.052;13.772;2023-03-19T21:57:22;100426.47;;;9.98;87.74
19114;BME280;9689;51.052;13.772;2023-03-19T22:02:44;100427.56;;;9.85;87.09
19114;BME280;9689;51.052;13.772;2023-03-19T22:07:47;100426.81;;;9.77;87.10
19114;BME280;9689;51.052;13.772;2023-03-19T22:12:48;100429.56;;;9.68;87.39
19114;BME280;9689;51.052;13.772;2023-03-19T22:17:49;100431.47;;;9.53;87.07
19114;BME280;9689;51.052;13.772;2023-03-19T22:22:52;100426.28;;;9.53;86.79
19114;BME280;9689;51.052;13.772;2023-03-19T22:27:53;100429.75;;;9.54;86.67
19114;BME280;9689;51.052;13.772;2023-03-19T22:32:56;100437.75;;;9.40;86.11
19114;BME280;9689;51.052;13.772;2023-03-19T22:37:59;100443.72;;;9.48;85.57
19114;BME280;9689;51.052;13.772;2023-03-19T22:42:59;100443.72;;;9.45;85.25
19114;BME280;9689;51.052;13.772;2023-03-19T22:48:01;100436.00;;;9.41;84.93
19114;BME280;9689;51.052;13.772;2023-03-19T22:53:16;100440.97;;;9.57;83.93
19114;BME280;9689;51.052;13.772;2023-03-19T22:58:19;100436.59;;;9.61;83.12
19114;BME280;9689;51.052;13.772;2023-03-19T23:03:23;100435.63;;;9.68;82.93
19114;BME280;9689;51.052;13.772;2023-03-19T23:08:25;100429.63;;;9.61;82.06
19114;BME280;9689;51.052;13.772;2023-03-19T23:13:26;100430.47;;;9.63;81.55
19114;BME280;9689;51.052;13.772;2023-03-19T23:18:28;100440.09;;;9.58;80.76
19114;BME280;9689;51.052;13.772;2023-03-19T23:23:31;100433.16;;;9.59;80.46
19114;BME280;9689;51.052;13.772;2023-03-19T23:28:33;100432.47;;;9.45;80.72
19114;BME280;9689;51.052;13.772;2023-03-19T23:33:34;100433.25;;;9.51;79.81
19114;BME280;9689;51.052;13.772;2023-03-19T23:38:37;100427.25;;;9.48;80.04
19114;BME280;9689;51.052;13.772;2023-03-19T23:43:38;100422.81;;;9.56;79.84
19114;BME280;9689;51.052;13.772;2023-03-19T23:48:39;100427.94;;;9.59;79.44
19114;BME280;9689;51.052;13.772;2023-03-19T23:53:42;100427.88;;;9.65;78.81
19114;BME280;9689;51.052;13.772;2023-03-19T23:58:43;100417.59;;;9.54;79.14
